createdAt,value
2018-04-02T00:00:11.050Z,83.07
2018-04-02T00:01:11.117Z,83.54
2018-04-02T00:02:11.087Z,83.59
2018-04-02T00:03:11.114Z,83.78
2018-04-02T00:04:10.858Z,83.83
2018-04-02T00:05:10.876Z,83.45
2018-04-02T00:06:11.145Z,83.88
2018-04-02T00:07:10.908Z,83.97
2018-04-02T00:08:11.173Z,84.07
2018-04-02T00:09:10.934Z,84.26
2018-04-02T00:10:11.205Z,83.88
2018-04-02T00:11:11.112Z,84.17
2018-04-02T00:12:10.979Z,83.97
2018-04-02T00:13:11.002Z,83.97
2018-04-02T00:14:11.263Z,83.97
2018-04-02T00:15:11.278Z,83.88
2018-04-02T00:16:11.292Z,84.17
2018-04-02T00:17:11.054Z,83.69
2018-04-02T00:18:11.319Z,83.5
2018-04-02T00:19:11.338Z,83.69
2018-04-02T00:20:11.097Z,83.36
2018-04-02T00:21:11.119Z,83.69
2018-04-02T00:22:11.123Z,83.88
2018-04-02T00:23:11.393Z,83.78
2018-04-02T00:24:11.409Z,83.97
2018-04-02T00:25:11.422Z,83.97
2018-04-02T00:26:11.494Z,84.17
2018-04-02T00:27:11.452Z,84.17
2018-04-02T00:28:11.470Z,84.36
2018-04-02T00:29:11.228Z,84.74
2018-04-02T00:30:11.502Z,84.17
2018-04-02T00:31:11.526Z,84.17
2018-04-02T00:32:11.270Z,83.69
2018-04-02T00:33:11.555Z,83.88
2018-04-02T00:34:11.549Z,83.97
2018-04-02T00:35:11.320Z,83.88
2018-04-02T00:36:12.209Z,83.88
2018-04-02T00:37:11.599Z,83.78
2018-04-02T00:38:11.622Z,83.4
2018-04-02T00:39:11.376Z,83.36
2018-04-02T00:40:11.646Z,83.4
2018-04-02T00:41:11.713Z,83.69
2018-04-02T00:42:11.683Z,83.12
2018-04-02T00:43:11.691Z,83.45
2018-04-02T00:44:11.706Z,83.64
2018-04-02T00:45:11.465Z,83.16
2018-04-02T00:46:11.735Z,83.54
2018-04-02T00:47:11.754Z,83.5
2018-04-02T00:48:11.509Z,83.64
2018-04-02T00:49:11.776Z,83.26
2018-04-02T00:50:11.795Z,83.45
2018-04-02T00:51:11.810Z,83.16
2018-04-02T00:52:11.568Z,83.07
2018-04-02T00:53:11.637Z,83.07
2018-04-02T00:54:11.852Z,83.16
2018-04-02T00:55:11.613Z,82.88
2018-04-02T00:56:11.626Z,83.16
2018-04-02T00:57:11.896Z,83.07
2018-04-02T00:58:11.912Z,83.45
2018-04-02T00:59:11.928Z,83.12
2018-04-02T01:00:11.686Z,83.54
2018-04-02T01:01:11.957Z,82.78
2018-04-02T01:02:11.989Z,83.07
2018-04-02T01:03:12.006Z,83.16
2018-04-02T01:04:11.777Z,83.36
2018-04-02T01:05:12.020Z,82.97
2018-04-02T01:06:12.031Z,82.88
2018-04-02T01:07:12.051Z,83.16
2018-04-02T01:08:12.115Z,82.5
2018-04-02T01:09:11.821Z,83.07
2018-04-02T01:10:12.088Z,82.31
2018-04-02T01:11:12.105Z,82.5
2018-04-02T01:12:12.120Z,83.16
2018-04-02T01:13:12.135Z,83.07
2018-04-02T01:14:11.894Z,82.69
2018-04-02T01:15:11.910Z,82.4
2018-04-02T01:16:11.918Z,82.69
2018-04-02T01:17:12.189Z,82.78
2018-04-02T01:18:12.004Z,82.5
2018-04-02T01:19:12.215Z,82.59
2018-04-02T01:20:12.232Z,82.88
2018-04-02T01:21:12.255Z,82.78
2018-04-02T01:22:12.268Z,82.97
2018-04-02T01:23:12.277Z,82.59
2018-04-02T01:24:12.300Z,82.59
2018-04-02T01:25:12.314Z,82.31
2018-04-02T01:26:12.326Z,82.31
2018-04-02T01:27:12.346Z,82.59
2018-04-02T01:28:12.363Z,82.59
2018-04-02T01:29:12.373Z,82.59
2018-04-02T01:30:12.386Z,82.69
2018-04-02T01:31:12.410Z,82.4
2018-04-02T01:32:12.433Z,82.5
2018-04-02T01:33:12.227Z,82.55
2018-04-02T01:34:12.446Z,82.78
2018-04-02T01:35:12.465Z,82.5
2018-04-02T01:36:12.222Z,82.5
2018-04-02T01:37:12.493Z,82.36
2018-04-02T01:38:12.510Z,82.74
2018-04-02T01:39:12.265Z,82.84
2018-04-02T01:40:12.294Z,82.78
2018-04-02T01:41:12.550Z,82.5
2018-04-02T01:42:12.310Z,82.55
2018-04-02T01:43:12.578Z,83.03
2018-04-02T01:44:12.593Z,82.5
2018-04-02T01:45:12.352Z,82.69
2018-04-02T01:46:12.369Z,82.65
2018-04-02T01:47:12.381Z,82.27
2018-04-02T01:48:12.724Z,82.84
2018-04-02T01:49:12.671Z,82.84
2018-04-02T01:50:12.701Z,82.93
2018-04-02T01:51:12.698Z,82.74
2018-04-02T01:52:12.711Z,83.22
2018-04-02T01:53:12.728Z,82.93
2018-04-02T01:54:12.745Z,82.93
2018-04-02T01:55:12.758Z,82.93
2018-04-02T01:56:12.772Z,82.46
2018-04-02T01:57:12.785Z,83.03
2018-04-02T01:58:12.545Z,82.65
2018-04-02T01:59:12.814Z,83.03
2018-04-02T02:00:12.834Z,82.46
2018-04-02T02:01:12.848Z,82.84
2018-04-02T02:02:12.863Z,82.84
2018-04-02T02:03:12.770Z,83.22
2018-04-02T02:04:12.889Z,82.55
2018-04-02T02:05:12.650Z,82.74
2018-04-02T02:06:12.917Z,82.93
2018-04-02T02:07:12.934Z,83.31
2018-04-02T02:08:12.696Z,83.03
2018-04-02T02:09:12.965Z,82.93
2018-04-02T02:10:12.731Z,82.74
2018-04-02T02:11:12.992Z,82.93
2018-04-02T02:12:13.022Z,83.03
2018-04-02T02:13:13.019Z,83.03
2018-04-02T02:14:12.781Z,82.93
2018-04-02T02:15:13.053Z,83.31
2018-04-02T02:16:13.062Z,82.55
2018-04-02T02:17:12.823Z,83.12
2018-04-02T02:18:13.141Z,82.93
2018-04-02T02:19:12.856Z,83.5
2018-04-02T02:20:13.123Z,83.31
2018-04-02T02:21:13.137Z,82.98
2018-04-02T02:22:13.153Z,83.4
2018-04-02T02:23:13.165Z,83.12
2018-04-02T02:24:13.182Z,83.03
2018-04-02T02:25:13.195Z,83.31
2018-04-02T02:26:12.953Z,83.12
2018-04-02T02:27:12.970Z,83.27
2018-04-02T02:28:13.239Z,83.12
2018-04-02T02:29:13.253Z,83.03
2018-04-02T02:30:13.285Z,82.93
2018-04-02T02:31:13.288Z,83.03
2018-04-02T02:32:13.297Z,83.12
2018-04-02T02:33:13.363Z,83.03
2018-04-02T02:34:13.070Z,83.12
2018-04-02T02:35:13.339Z,83.03
2018-04-02T02:36:13.098Z,83.22
2018-04-02T02:37:13.374Z,83.31
2018-04-02T02:38:13.387Z,83.22
2018-04-02T02:39:13.395Z,82.36
2018-04-02T02:40:13.417Z,82.46
2018-04-02T02:41:13.451Z,82.27
2018-04-02T02:42:13.445Z,82.93
2018-04-02T02:43:13.505Z,82.36
2018-04-02T02:44:13.468Z,82.46
2018-04-02T02:45:13.489Z,82.84
2018-04-02T02:46:13.500Z,82.27
2018-04-02T02:47:13.515Z,82.27
2018-04-02T02:48:13.536Z,82.74
2018-04-02T02:49:13.288Z,82.65
2018-04-02T02:50:13.562Z,82.46
2018-04-02T02:51:13.318Z,82.46
2018-04-02T02:52:13.592Z,82.74
2018-04-02T02:53:13.599Z,82.46
2018-04-02T02:54:13.359Z,82.55
2018-04-02T02:55:13.374Z,82.79
2018-04-02T02:56:13.391Z,82.36
2018-04-02T02:57:13.402Z,82.46
2018-04-02T02:58:13.467Z,82.46
2018-04-02T02:59:13.690Z,82.84
2018-04-02T03:00:13.708Z,82.65
2018-04-02T03:01:13.461Z,82.17
2018-04-02T03:02:13.477Z,82.74
2018-04-02T03:03:13.748Z,82.27
2018-04-02T03:04:13.784Z,82.42
2018-04-02T03:05:13.782Z,82.36
2018-04-02T03:06:13.787Z,82.23
2018-04-02T03:07:13.549Z,82.55
2018-04-02T03:08:13.565Z,82.23
2018-04-02T03:09:13.823Z,82.55
2018-04-02T03:10:13.851Z,82.51
2018-04-02T03:11:13.846Z,82.32
2018-04-02T03:12:13.619Z,82.32
2018-04-02T03:13:13.945Z,82.42
2018-04-02T03:14:13.650Z,82.51
2018-04-02T03:15:13.919Z,82.65
2018-04-02T03:16:13.938Z,82.46
2018-04-02T03:17:13.690Z,82.42
2018-04-02T03:18:13.961Z,82.32
2018-04-02T03:19:13.983Z,82.23
2018-04-02T03:20:13.736Z,82.13
2018-04-02T03:21:14.006Z,82.51
2018-04-02T03:22:13.794Z,82.08
2018-04-02T03:23:14.082Z,82.36
2018-04-02T03:24:13.797Z,82.46
2018-04-02T03:25:14.062Z,82.23
2018-04-02T03:26:14.074Z,82.46
2018-04-02T03:27:14.092Z,82.46
2018-04-02T03:28:14.160Z,82.13
2018-04-02T03:29:13.866Z,82.51
2018-04-02T03:30:14.138Z,82.42
2018-04-02T03:31:14.159Z,82.46
2018-04-02T03:32:13.908Z,82.7
2018-04-02T03:33:13.921Z,82.89
2018-04-02T03:34:14.192Z,82.42
2018-04-02T03:35:14.208Z,82.6
2018-04-02T03:36:14.221Z,82.42
2018-04-02T03:37:14.235Z,82.79
2018-04-02T03:38:14.255Z,82.23
2018-04-02T03:39:14.007Z,82.42
2018-04-02T03:40:14.279Z,82.32
2018-04-02T03:41:14.037Z,82.51
2018-04-02T03:42:14.308Z,82.42
2018-04-02T03:43:14.369Z,82.74
2018-04-02T03:44:14.082Z,81.94
2018-04-02T03:45:14.355Z,82.13
2018-04-02T03:46:14.109Z,82.51
2018-04-02T03:47:14.376Z,82.04
2018-04-02T03:48:14.392Z,82.42
2018-04-02T03:49:14.143Z,82.32
2018-04-02T03:50:14.407Z,82.42
2018-04-02T03:51:14.452Z,82.23
2018-04-02T03:52:14.438Z,82.32
2018-04-02T03:53:14.457Z,82.42
2018-04-02T03:54:14.473Z,82.32
2018-04-02T03:55:14.488Z,82.74
2018-04-02T03:56:14.498Z,82.32
2018-04-02T03:57:14.259Z,82.13
2018-04-02T03:58:14.579Z,82.42
2018-04-02T03:59:14.550Z,82.42
2018-04-02T04:00:14.302Z,82.32
2018-04-02T04:01:14.569Z,81.88
2018-04-02T04:02:14.333Z,82.46
2018-04-02T04:03:14.596Z,82.04
2018-04-02T04:04:14.372Z,81.88
2018-04-02T04:05:14.619Z,81.79
2018-04-02T04:06:14.635Z,81.56
2018-04-02T04:07:14.651Z,82.08
2018-04-02T04:08:14.686Z,81.75
2018-04-02T04:09:14.677Z,82.04
2018-04-02T04:10:14.694Z,82.23
2018-04-02T04:11:14.460Z,82.55
2018-04-02T04:12:14.471Z,82.55
2018-04-02T04:13:14.548Z,82.46
2018-04-02T04:14:14.750Z,82.36
2018-04-02T04:15:14.779Z,81.88
2018-04-02T04:16:14.792Z,81.09
2018-04-02T04:17:14.855Z,81.85
2018-04-02T04:18:14.824Z,81.66
2018-04-02T04:19:14.582Z,81.66
2018-04-02T04:20:14.848Z,81.66
2018-04-02T04:21:14.863Z,81.6
2018-04-02T04:22:14.623Z,82.08
2018-04-02T04:23:14.891Z,81.13
2018-04-02T04:24:14.652Z,81.6
2018-04-02T04:25:14.929Z,81.18
2018-04-02T04:26:14.965Z,81.66
2018-04-02T04:27:14.955Z,81.18
2018-04-02T04:28:15.017Z,81.6
2018-04-02T04:29:14.979Z,82.23
2018-04-02T04:30:14.992Z,82.23
2018-04-02T04:31:15.008Z,82.08
2018-04-02T04:32:15.018Z,81.7
2018-04-02T04:33:15.040Z,81.66
2018-04-02T04:34:15.056Z,81.7
2018-04-02T04:35:14.816Z,82.36
2018-04-02T04:36:15.080Z,82.46
2018-04-02T04:37:15.107Z,81.98
2018-04-02T04:38:15.109Z,81.23
2018-04-02T04:39:15.122Z,81.51
2018-04-02T04:40:15.216Z,81.79
2018-04-02T04:41:14.897Z,81.23
2018-04-02T04:42:15.165Z,81.56
2018-04-02T04:43:15.229Z,81.94
2018-04-02T04:44:15.192Z,81.66
2018-04-02T04:45:15.201Z,81.7
2018-04-02T04:46:15.223Z,81.75
2018-04-02T04:47:15.234Z,81.56
2018-04-02T04:48:15.252Z,81.27
2018-04-02T04:49:15.264Z,81.09
2018-04-02T04:50:15.027Z,82.04
2018-04-02T04:51:15.298Z,82.51
2018-04-02T04:52:15.314Z,82.36
2018-04-02T04:53:15.120Z,82.42
2018-04-02T04:54:15.346Z,83.03
2018-04-02T04:55:15.357Z,83.12
2018-04-02T04:56:15.115Z,82.46
2018-04-02T04:57:15.127Z,81.23
2018-04-02T04:58:15.403Z,80.94
2018-04-02T04:59:15.408Z,81.7
2018-04-02T05:00:15.428Z,81.7
2018-04-02T05:01:15.450Z,81.7
2018-04-02T05:02:15.454Z,81.6
2018-04-02T05:03:15.468Z,81.6
2018-04-02T05:04:15.483Z,81.88
2018-04-02T05:05:15.502Z,81.47
2018-04-02T05:06:15.258Z,81.04
2018-04-02T05:07:15.272Z,81.13
2018-04-02T05:08:15.592Z,81.13
2018-04-02T05:09:15.553Z,81.6
2018-04-02T05:10:15.572Z,81.94
2018-04-02T05:11:15.586Z,82.36
2018-04-02T05:12:15.347Z,82.46
2018-04-02T05:13:15.616Z,82.27
2018-04-02T05:14:15.617Z,82.17
2018-04-02T05:15:15.627Z,82.74
2018-04-02T05:16:15.644Z,82.17
2018-04-02T05:17:15.660Z,82.36
2018-04-02T05:18:15.676Z,81.41
2018-04-02T05:19:15.697Z,81.13
2018-04-02T05:20:15.713Z,81.32
2018-04-02T05:21:15.723Z,81.04
2018-04-02T05:22:15.744Z,80.94
2018-04-02T05:23:15.506Z,80.84
2018-04-02T05:24:15.778Z,80.46
2018-04-02T05:25:15.532Z,81.04
2018-04-02T05:26:15.798Z,80.62
2018-04-02T05:27:15.881Z,80.43
2018-04-02T05:28:15.568Z,80.99
2018-04-02T05:29:15.834Z,81.09
2018-04-02T05:30:15.845Z,81.09
2018-04-02T05:31:15.859Z,81.75
2018-04-02T05:32:15.625Z,81.66
2018-04-02T05:33:15.892Z,82.6
2018-04-02T05:34:15.914Z,81.79
2018-04-02T05:35:15.676Z,81.47
2018-04-02T05:36:15.941Z,81.18
2018-04-02T05:37:15.701Z,81.27
2018-04-02T05:38:15.720Z,81.27
2018-04-02T05:39:15.987Z,81.27
2018-04-02T05:40:16.001Z,81.66
2018-04-02T05:41:16.017Z,81.75
2018-04-02T05:42:15.825Z,81.85
2018-04-02T05:43:15.793Z,81.56
2018-04-02T05:44:16.056Z,81.37
2018-04-02T05:45:15.861Z,81.85
2018-04-02T05:46:15.833Z,81.66
2018-04-02T05:47:16.103Z,81.56
2018-04-02T05:48:16.115Z,81.18
2018-04-02T05:49:16.130Z,81.66
2018-04-02T05:50:16.143Z,81.6
2018-04-02T05:51:15.902Z,81.85
2018-04-02T05:52:16.177Z,81.47
2018-04-02T05:53:15.930Z,81.47
2018-04-02T05:54:16.216Z,81.66
2018-04-02T05:55:16.216Z,81.85
2018-04-02T05:56:16.231Z,81.75
2018-04-02T05:57:16.394Z,81.56
2018-04-02T05:58:16.003Z,81.04
2018-04-02T05:59:16.272Z,81.09
2018-04-02T06:00:16.287Z,81.04
2018-04-02T06:01:16.045Z,80.65
2018-04-02T06:02:16.067Z,81.32
2018-04-02T06:03:16.329Z,81.13
2018-04-02T06:04:16.089Z,80.65
2018-04-02T06:05:16.437Z,80.65
2018-04-02T06:06:16.372Z,80.75
2018-04-02T06:07:16.388Z,80.56
2018-04-02T06:08:16.406Z,79.99
2018-04-02T06:09:16.420Z,80.08
2018-04-02T06:10:16.178Z,79.99
2018-04-02T06:11:16.448Z,79.99
2018-04-02T06:12:16.511Z,79.52
2018-04-02T06:13:16.476Z,79.42
2018-04-02T06:14:16.489Z,79.9
2018-04-02T06:15:16.507Z,79.9
2018-04-02T06:16:16.542Z,79.33
2018-04-02T06:17:16.536Z,78.75
2018-04-02T06:18:16.548Z,79.71
2018-04-02T06:19:16.570Z,79.33
2018-04-02T06:20:16.583Z,79.52
2018-04-02T06:21:16.603Z,79.84
2018-04-02T06:22:16.610Z,79.27
2018-04-02T06:23:16.622Z,79.46
2018-04-02T06:24:16.404Z,79.46
2018-04-02T06:25:16.396Z,78.89
2018-04-02T06:26:16.659Z,78.8
2018-04-02T06:27:16.726Z,79.55
2018-04-02T06:28:16.443Z,79.74
2018-04-02T06:29:16.709Z,78.8
2018-04-02T06:30:16.585Z,78.7
2018-04-02T06:31:16.743Z,78.8
2018-04-02T06:32:16.760Z,78.13
2018-04-02T06:33:16.781Z,78.17
2018-04-02T06:34:16.791Z,78.27
2018-04-02T06:35:16.803Z,77.79
2018-04-02T06:36:16.562Z,77.6
2018-04-02T06:37:16.843Z,76.93
2018-04-02T06:38:16.597Z,76.93
2018-04-02T06:39:16.866Z,76.93
2018-04-02T06:40:16.883Z,76.84
2018-04-02T06:41:16.643Z,76.56
2018-04-02T06:42:16.659Z,76.37
2018-04-02T06:43:16.679Z,75.7
2018-04-02T06:44:16.998Z,76.18
2018-04-02T06:45:16.999Z,76.18
2018-04-02T06:46:16.977Z,76.56
2018-04-02T06:47:16.737Z,76.56
2018-04-02T06:48:17.008Z,75.99
2018-04-02T06:49:17.019Z,76.18
2018-04-02T06:50:17.049Z,75.51
2018-04-02T06:51:16.799Z,75.7
2018-04-02T06:52:17.071Z,75.55
2018-04-02T06:53:17.083Z,75.36
2018-04-02T06:54:17.100Z,75.07
2018-04-02T06:55:16.863Z,75.26
2018-04-02T06:56:17.138Z,74.6
2018-04-02T06:57:17.154Z,74.31
2018-04-02T06:58:17.171Z,73.74
2018-04-02T06:59:17.228Z,74.12
2018-04-02T07:00:17.194Z,74.12
2018-04-02T07:01:17.211Z,72.7
2018-04-02T07:02:16.974Z,72.6
2018-04-02T07:03:17.242Z,72.22
2018-04-02T07:04:17.263Z,72.7
2018-04-02T07:05:17.283Z,72.6
2018-04-02T07:06:17.292Z,72.51
2018-04-02T07:07:17.315Z,72.7
2018-04-02T07:08:17.325Z,72.03
2018-04-02T07:09:17.340Z,72.41
2018-04-02T07:10:17.111Z,73.18
2018-04-02T07:11:17.369Z,72.13
2018-04-02T07:12:17.386Z,72.6
2018-04-02T07:13:17.407Z,72.7
2018-04-02T07:14:17.422Z,72.16
2018-04-02T07:15:17.492Z,72.45
2018-04-02T07:16:17.206Z,71.59
2018-04-02T07:17:17.476Z,70.93
2018-04-02T07:18:17.487Z,70.07
2018-04-02T07:19:17.500Z,69.5
2018-04-02T07:20:17.519Z,69.98
2018-04-02T07:21:17.532Z,70.54
2018-04-02T07:22:17.549Z,69.6
2018-04-02T07:23:17.565Z,68.55
2018-04-02T07:24:17.583Z,68.84
2018-04-02T07:25:17.652Z,69.12
2018-04-02T07:26:17.360Z,67.88
2018-04-02T07:27:17.377Z,67.88
2018-04-02T07:28:17.650Z,67.41
2018-04-02T07:29:17.670Z,67.5
2018-04-02T07:30:17.680Z,67.82
2018-04-02T07:31:17.697Z,67.35
2018-04-02T07:32:17.461Z,66.78
2018-04-02T07:33:17.476Z,66.02
2018-04-02T07:34:17.744Z,64.21
2018-04-02T07:35:17.764Z,63.17
2018-04-02T07:36:17.794Z,64.97
2018-04-02T07:37:17.830Z,63.35
2018-04-02T07:38:17.811Z,63.54
2018-04-02T07:39:17.832Z,62.4
2018-04-02T07:40:17.642Z,60.69
2018-04-02T07:41:17.863Z,59.83
2018-04-02T07:42:17.880Z,61.26
2018-04-02T07:43:17.642Z,61.16
2018-04-02T07:44:17.964Z,60.88
2018-04-02T07:45:17.932Z,60.5
2018-04-02T07:46:18.017Z,60.41
2018-04-02T07:47:17.964Z,60.97
2018-04-02T07:48:17.981Z,59.77
2018-04-02T07:49:18.000Z,60.44
2018-04-02T07:50:18.018Z,58.53
2018-04-02T07:51:18.030Z,57.67
2018-04-02T07:52:17.805Z,56.82
2018-04-02T07:53:17.811Z,56.82
2018-04-02T07:54:18.085Z,58.25
2018-04-02T07:55:18.152Z,57.48
2018-04-02T07:56:17.865Z,58.81
2018-04-02T07:57:18.136Z,58.81
2018-04-02T07:58:17.898Z,59.58
2018-04-02T07:59:18.168Z,57.01
2018-04-02T08:00:18.192Z,56.44
2018-04-02T08:01:18.202Z,55.32
2018-04-02T08:02:17.967Z,55.68
2018-04-02T08:03:18.238Z,56.37
2018-04-02T08:04:18.359Z,56.44
2018-04-02T08:05:18.279Z,55.87
2018-04-02T08:06:18.042Z,54.91
2018-04-02T08:07:18.300Z,56.53
2018-04-02T08:08:18.063Z,56.37
2018-04-02T08:09:18.084Z,56.46
2018-04-02T08:10:18.152Z,55.13
2018-04-02T08:11:18.376Z,56.46
2018-04-02T08:12:18.133Z,55.99
2018-04-02T08:13:18.411Z,58.78
2018-04-02T08:14:18.197Z,55.92
2018-04-02T08:15:18.453Z,53.54
2018-04-02T08:16:18.468Z,53.73
2018-04-02T08:17:18.487Z,53.64
2018-04-02T08:18:18.248Z,54.21
2018-04-02T08:19:18.265Z,53.64
2018-04-02T08:20:18.284Z,53.92
2018-04-02T08:21:18.597Z,53.73
2018-04-02T08:22:18.326Z,53.25
2018-04-02T08:23:18.337Z,54.02
2018-04-02T08:24:18.614Z,53.73
2018-04-02T08:25:18.696Z,53.25
2018-04-02T08:26:18.395Z,53.54
2018-04-02T08:27:18.664Z,53.06
2018-04-02T08:28:18.441Z,53.44
2018-04-02T08:29:18.703Z,53.35
2018-04-02T08:30:18.721Z,53.54
2018-04-02T08:31:18.748Z,54.11
2018-04-02T08:32:18.755Z,53.73
2018-04-02T08:33:18.518Z,53.73
2018-04-02T08:34:18.792Z,53.25
2018-04-02T08:35:18.798Z,53.16
2018-04-02T08:36:18.820Z,53
2018-04-02T08:37:19.466Z,52.8
2018-04-02T08:38:18.864Z,52.42
2018-04-02T08:39:18.627Z,53.19
2018-04-02T08:40:18.953Z,52.61
2018-04-02T08:41:18.917Z,51.76
2018-04-02T08:42:18.683Z,50.8
2018-04-02T08:43:18.956Z,53
2018-04-02T08:44:19.034Z,51.21
2018-04-02T08:45:18.741Z,50.73
2018-04-02T08:46:18.769Z,49.97
2018-04-02T08:47:19.029Z,49.56
2018-04-02T08:48:19.052Z,49.97
2018-04-02T08:49:19.057Z,49.02
2018-04-02T08:50:18.823Z,48.92
2018-04-02T08:51:19.104Z,49.95
2018-04-02T08:52:19.127Z,49.87
2018-04-02T08:53:19.142Z,50.42
2018-04-02T08:54:19.158Z,49.66
2018-04-02T08:55:18.974Z,50.04
2018-04-02T08:56:19.198Z,49.59
2018-04-02T08:57:18.963Z,48.83
2018-04-02T08:58:18.986Z,49.11
2018-04-02T08:59:19.012Z,49.59
2018-04-02T09:00:19.277Z,48.92
2018-04-02T09:01:19.318Z,48.35
2018-04-02T09:02:19.063Z,48.37
2018-04-02T09:03:19.077Z,47.11
2018-04-02T09:04:19.345Z,47.11
2018-04-02T09:05:19.113Z,47.3
2018-04-02T09:06:19.383Z,47.87
2018-04-02T09:07:19.148Z,47.02
2018-04-02T09:08:19.418Z,47.2
2018-04-02T09:09:19.470Z,47.2
2018-04-02T09:10:19.261Z,47.39
2018-04-02T09:11:19.479Z,47.11
2018-04-02T09:12:19.244Z,47.58
2018-04-02T09:13:19.592Z,47.3
2018-04-02T09:14:19.299Z,47.49
2018-04-02T09:15:19.303Z,46.94
2018-04-02T09:16:19.320Z,46.37
2018-04-02T09:17:19.344Z,45.42
2018-04-02T09:18:19.367Z,45.51
2018-04-02T09:19:19.641Z,43.79
2018-04-02T09:20:19.664Z,43.32
2018-04-02T09:21:19.688Z,43.41
2018-04-02T09:22:19.445Z,42.65
2018-04-02T09:23:19.466Z,42.65
2018-04-02T09:24:19.487Z,42.48
2018-04-02T09:25:19.559Z,43.53
2018-04-02T09:26:20.406Z,42.79
2018-04-02T09:27:19.550Z,42.61
2018-04-02T09:28:19.575Z,42.24
2018-04-02T09:29:19.853Z,40.34
2018-04-02T09:30:19.619Z,39.96
2018-04-02T09:31:19.641Z,39.48
2018-04-02T09:32:19.915Z,39.79
2018-04-02T09:33:19.691Z,38.35
2018-04-02T09:34:19.972Z,36.73
2018-04-02T09:35:19.736Z,36.73
2018-04-02T09:36:20.029Z,37.4
2018-04-02T09:37:20.039Z,37.23
2018-04-02T09:38:20.060Z,37.51
2018-04-02T09:39:19.830Z,37.13
2018-04-02T09:40:20.158Z,36.75
2018-04-02T09:41:19.877Z,37.24
2018-04-02T09:42:19.902Z,36
2018-04-02T09:43:19.928Z,35.63
2018-04-02T09:44:20.224Z,36.79
2018-04-02T09:45:20.237Z,36.21
2018-04-02T09:46:20.266Z,34.02
2018-04-02T09:47:20.282Z,34.69
2018-04-02T09:48:20.053Z,33.84
2018-04-02T09:49:20.332Z,32.79
2018-04-02T09:50:20.358Z,32.2
2018-04-02T09:51:20.133Z,32.68
2018-04-02T09:52:20.155Z,32.21
2018-04-02T09:53:20.184Z,31.74
2018-04-02T09:54:20.579Z,31.56
2018-04-02T09:55:20.288Z,30.12
2018-04-02T09:56:20.261Z,31.2
2018-04-02T09:57:20.290Z,31.29
2018-04-02T09:58:20.570Z,29.96
2018-04-02T09:59:20.705Z,30.82
2018-04-02T10:00:20.373Z,28.72
2018-04-02T10:01:20.653Z,28.34
2018-04-02T10:02:20.674Z,28.53
2018-04-02T10:03:20.708Z,29.4
2018-04-02T10:04:20.728Z,28.55
2018-04-02T10:05:20.771Z,27.87
2018-04-02T10:06:20.534Z,26.45
2018-04-02T10:07:20.560Z,27.39
2018-04-02T10:08:20.843Z,27.58
2018-04-02T10:09:20.868Z,27.59
2018-04-02T10:10:21.092Z,27.49
2018-04-02T10:11:20.668Z,27.39
2018-04-02T10:12:20.956Z,26.82
2018-04-02T10:13:20.727Z,27.2
2018-04-02T10:14:21.013Z,27.02
2018-04-02T10:15:21.046Z,27.4
2018-04-02T10:16:20.813Z,25.31
2018-04-02T10:17:20.840Z,24.73
2018-04-02T10:18:20.867Z,24.84
2018-04-02T10:19:21.154Z,24.93
2018-04-02T10:20:21.182Z,24.07
2018-04-02T10:21:20.960Z,25.9
2018-04-02T10:22:21.275Z,23.21
2018-04-02T10:23:21.267Z,23.5
2018-04-02T10:24:21.320Z,23.13
2018-04-02T10:25:21.373Z,23.13
2018-04-02T10:26:21.420Z,23.22
2018-04-02T10:27:21.383Z,23.32
2018-04-02T10:28:21.410Z,22.93
2018-04-02T10:29:21.477Z,23.9
2018-04-02T10:30:21.472Z,24.38
2018-04-02T10:31:21.504Z,23.63
2018-04-02T10:32:21.537Z,22.86
2018-04-02T10:33:21.557Z,22.49
2018-04-02T10:34:21.332Z,21.52
2018-04-02T10:35:21.361Z,21.8
2018-04-02T10:36:21.646Z,22.67
2018-04-02T10:37:21.772Z,21.88
2018-04-02T10:38:21.708Z,21.98
2018-04-02T10:39:21.491Z,21.59
2018-04-02T10:40:21.562Z,22.86
2018-04-02T10:41:21.797Z,21.62
2018-04-02T10:42:21.836Z,21.81
2018-04-02T10:43:21.945Z,19.31
2018-04-02T10:44:21.887Z,20.86
2018-04-02T10:45:21.715Z,19.91
2018-04-02T10:46:21.692Z,18.65
2018-04-02T10:47:21.976Z,18.85
2018-04-02T10:48:22.011Z,19.13
2018-04-02T10:49:21.790Z,18.75
2018-04-02T10:50:22.077Z,18.94
2018-04-02T10:51:22.106Z,19.73
2018-04-02T10:52:22.134Z,20.89
2018-04-02T10:53:21.913Z,19.17
2018-04-02T10:54:22.197Z,18.77
2018-04-02T10:55:21.974Z,17.52
2018-04-02T10:56:22.008Z,17.52
2018-04-02T10:57:22.288Z,18.79
2018-04-02T10:58:22.318Z,18.49
2018-04-02T10:59:22.354Z,17.63
2018-04-02T11:00:22.442Z,15.99
2018-04-02T11:01:22.416Z,16.86
2018-04-02T11:02:22.195Z,17.14
2018-04-02T11:03:22.225Z,16.48
2018-04-02T11:04:22.566Z,15.61
2018-04-02T11:05:22.569Z,15.42
2018-04-02T11:06:22.576Z,15.61
2018-04-02T11:07:22.607Z,15.33
2018-04-02T11:08:22.666Z,13.96
2018-04-02T11:09:22.673Z,15.7
2018-04-02T11:10:22.805Z,15.12
2018-04-02T11:11:22.740Z,14.14
2018-04-02T11:12:22.514Z,14.15
2018-04-02T11:13:22.544Z,15.11
2018-04-02T11:14:22.843Z,15.5
2018-04-02T11:15:22.917Z,16.28
2018-04-02T11:16:22.639Z,16.48
2018-04-02T11:17:22.676Z,15.03
2018-04-02T11:18:22.706Z,15.31
2018-04-02T11:19:22.992Z,15.41
2018-04-02T11:20:23.030Z,16.46
2018-04-02T11:21:23.058Z,16.08
2018-04-02T11:22:22.836Z,15.69
2018-04-02T11:23:23.119Z,16.08
2018-04-02T11:24:22.894Z,14.54
2018-04-02T11:25:23.176Z,15.52
2018-04-02T11:26:23.218Z,15.61
2018-04-02T11:27:23.252Z,15.52
2018-04-02T11:28:23.029Z,14.27
2018-04-02T11:29:23.057Z,13.59
2018-04-02T11:30:23.392Z,14.08
2018-04-02T11:31:23.122Z,13.98
2018-04-02T11:32:23.415Z,14.37
2018-04-02T11:33:23.468Z,14.38
2018-04-02T11:34:23.476Z,13.9
2018-04-02T11:35:23.304Z,13.32
2018-04-02T11:36:23.288Z,12.46
2018-04-02T11:37:23.580Z,13.14
2018-04-02T11:38:23.615Z,11.19
2018-04-02T11:39:23.646Z,11.68
2018-04-02T11:40:23.677Z,11.49
2018-04-02T11:41:23.461Z,11.79
2018-04-02T11:42:23.751Z,11.19
2018-04-02T11:43:23.783Z,12.16
2018-04-02T11:44:23.819Z,12.63
2018-04-02T11:45:23.595Z,13.11
2018-04-02T11:46:23.879Z,12.63
2018-04-02T11:47:23.660Z,13.11
2018-04-02T11:48:23.955Z,11.76
2018-04-02T11:49:23.982Z,13.4
2018-04-02T11:50:24.067Z,12.73
2018-04-02T11:51:24.056Z,12.82
2018-04-02T11:52:24.076Z,13.11
2018-04-02T11:53:23.852Z,13.51
2018-04-02T11:54:24.142Z,12.45
2018-04-02T11:55:24.275Z,11.29
2018-04-02T11:56:24.204Z,10.13
2018-04-02T11:57:24.251Z,10.52
2018-04-02T11:58:24.275Z,10.81
2018-04-02T11:59:24.307Z,11.11
2018-04-02T12:00:24.338Z,11.79
2018-04-02T12:01:24.123Z,11.02
2018-04-02T12:02:24.416Z,10.34
2018-04-02T12:03:24.443Z,9.37
2018-04-02T12:04:24.479Z,9.08
2018-04-02T12:05:24.307Z,8.98
2018-04-02T12:06:24.298Z,10.16
2018-04-02T12:07:24.589Z,9.09
2018-04-02T12:08:24.623Z,9
2018-04-02T12:09:24.697Z,7.04
2018-04-02T12:10:24.700Z,8.4
2018-04-02T12:11:24.470Z,8.4
2018-04-02T12:12:24.766Z,8.59
2018-04-02T12:13:24.792Z,7.91
2018-04-02T12:14:24.825Z,7.61
2018-04-02T12:15:24.905Z,9.17
2018-04-02T12:16:24.893Z,8.69
2018-04-02T12:17:24.673Z,8.3
2018-04-02T12:18:24.707Z,7.91
2018-04-02T12:19:25.001Z,8.4
2018-04-02T12:20:25.122Z,7.33
2018-04-02T12:21:25.074Z,8.31
2018-04-02T12:22:25.110Z,7.62
2018-04-02T12:23:25.134Z,7.63
2018-04-02T12:24:24.914Z,7.14
2018-04-02T12:25:24.949Z,7.91
2018-04-02T12:26:25.393Z,8.2
2018-04-02T12:27:25.276Z,8.01
2018-04-02T12:28:25.312Z,8.21
2018-04-02T12:29:25.359Z,7.92
2018-04-02T12:30:25.380Z,7.73
2018-04-02T12:31:25.415Z,8.11
2018-04-02T12:32:25.454Z,7.53
2018-04-02T12:33:25.225Z,7.72
2018-04-02T12:34:25.515Z,8.9
2018-04-02T12:35:25.603Z,7.54
2018-04-02T12:36:25.334Z,6.27
2018-04-02T12:37:25.368Z,7.25
2018-04-02T12:38:25.654Z,6.47
2018-04-02T12:39:25.436Z,7.25
2018-04-02T12:40:25.470Z,6.95
2018-04-02T12:41:25.508Z,7.54
2018-04-02T12:42:25.542Z,6.96
2018-04-02T12:43:26.002Z,7.16
2018-04-02T12:44:26.219Z,7.07
2018-04-02T12:45:26.084Z,6.58
2018-04-02T12:46:25.693Z,5.51
2018-04-02T12:47:25.757Z,5.11
2018-04-02T12:48:25.774Z,5.11
2018-04-02T12:49:26.043Z,4.22
2018-04-02T12:50:26.127Z,5.3
2018-04-02T12:51:25.856Z,4.22
2018-04-02T12:52:26.147Z,4.91
2018-04-02T12:53:26.179Z,5
2018-04-02T12:54:26.218Z,5.4
2018-04-02T12:55:26.252Z,5.68
2018-04-02T12:56:26.292Z,6.07
2018-04-02T12:57:26.329Z,5.49